Авиационная погода в Богашево

СКИДКИ НА СМАРТФОНЫ!

Регион: 
Погода METAR: 
UNTT 091530Z 05002MPS CAVOK 19/14 Q1011 R21/////// NOSIG RMK QFE743
Время наблюдения
2022-08-09T15:30:00Z
Температура C
19.0
Точка росы
14.0
Направление ветра
50
Скорость ветра (узлы)
4
Метео видимость
6.21
Облачность
CAVOK
Нижняя граница облачности (футы)
Явления погоды
Условия полета
VFR
Аэропорт подробнее: 

Скидки на навигаторы!